Time;durP1;ratioP1;P1;durP2;ratioP2;P2;SDS_P1;SDS_P2;PMS_P1;PMS_P2;Temp;Humidity;BMP_temperature;BMP_pressure;BME280_temperature;BME280_humidity;BME280_pressure;Samples;Min_cycle;Max_cycle;Signal;HPM_P1;HPM_P2
2021/10/21 00:00:56;;;;;;;2.63;1.77;;;;;;;;;;6280767;22;20190;-64
2021/10/21 00:03:22;;;;;;;3.80;1.95;;;;;;;;;;6280045;22;20591;-64
2021/10/21 00:05:48;;;;;;;3.85;1.80;;;;;;;;;;6281037;22;20143;-64
2021/10/21 00:08:14;;;;;;;3.08;1.67;;;;;;;;;;6280820;22;20148;-64
2021/10/21 00:10:43;;;;;;;4.03;1.77;;;;;;;;;;6282398;22;20140;-64
2021/10/21 00:13:09;;;;;;;4.75;1.73;;;;;;;;;;6282601;22;20143;-64
2021/10/21 00:15:35;;;;;;;4.85;1.77;;;;;;;;;;6282795;22;20152;-64
2021/10/21 00:18:01;;;;;;;2.50;1.65;;;;;;;;;;6282229;22;20417;-64
2021/10/21 00:20:27;;;;;;;4.53;1.73;;;;;;;;;;6283274;22;20140;-64
2021/10/21 00:22:53;;;;;;;11.25;2.15;;;;;;;;;;6282594;22;20171;-64
2021/10/21 00:25:19;;;;;;;4.85;1.60;;;;;;;;;;6282408;22;20155;-64
2021/10/21 00:27:44;;;;;;;6.10;1.90;;;;;;;;;;6282607;22;20128;-64
2021/10/21 00:30:10;;;;;;;6.15;1.98;;;;;;;;;;6282877;22;20213;-64
2021/10/21 00:32:36;;;;;;;4.45;1.90;;;;;;;;;;6282851;22;20208;-64
2021/10/21 00:35:03;;;;;;;5.55;1.90;;;;;;;;;;6282523;22;20170;-64
2021/10/21 00:37:29;;;;;;;4.50;1.73;;;;;;;;;;6282609;22;20197;-64
2021/10/21 00:39:55;;;;;;;5.95;2.00;;;;;;;;;;6282861;22;20147;-64
2021/10/21 00:42:21;;;;;;;4.88;1.67;;;;;;;;;;6282599;22;20161;-64
2021/10/21 00:44:47;;;;;;;3.90;1.77;;;;;;;;;;6282749;22;20327;-64
2021/10/21 00:47:13;;;;;;;6.07;1.80;;;;;;;;;;6282584;22;20139;-64
2021/10/21 00:49:39;;;;;;;5.55;2.33;;;;;;;;;;6282294;22;20143;-64
2021/10/21 00:52:05;;;;;;;8.55;2.25;;;;;;;;;;6281757;22;20224;-64
2021/10/21 00:54:31;;;;;;;4.97;1.88;;;;;;;;;;6282356;22;20143;-64
2021/10/21 00:56:57;;;;;;;4.40;2.10;;;;;;;;;;6281969;22;20140;-64
2021/10/21 00:59:23;;;;;;;5.30;2.00;;;;;;;;;;6282324;22;20144;-64
2021/10/21 01:01:49;;;;;;;6.45;1.90;;;;;;;;;;6282829;22;20147;-64
2021/10/21 01:04:15;;;;;;;4.78;2.03;;;;;;;;;;6282502;22;20167;-64
2021/10/21 01:06:42;;;;;;;4.25;1.80;;;;;;;;;;6283210;22;20581;-64
2021/10/21 01:09:08;;;;;;;5.70;2.00;;;;;;;;;;6284278;22;20149;-64
2021/10/21 01:11:34;;;;;;;3.60;1.83;;;;;;;;;;6284576;22;20151;-64
2021/10/21 01:14:01;;;;;;;4.25;2.15;;;;;;;;;;6283929;22;20147;-64
2021/10/21 01:16:27;;;;;;;4.97;2.13;;;;;;;;;;6284835;22;20139;-65
2021/10/21 01:18:53;;;;;;;7.32;2.45;;;;;;;;;;6258291;22;20158;-63
2021/10/21 01:21:19;;;;;;;5.40;2.42;;;;;;;;;;6284414;22;20144;-64
2021/10/21 01:23:44;;;;;;;5.47;2.20;;;;;;;;;;6284361;22;20174;-64
2021/10/21 01:26:12;;;;;;;5.78;2.30;;;;;;;;;;6283257;22;20494;-64
2021/10/21 01:28:38;;;;;;;7.53;2.53;;;;;;;;;;6281825;22;20211;-64
2021/10/21 01:31:05;;;;;;;3.10;2.28;;;;;;;;;;6282012;22;20140;-64
2021/10/21 01:33:32;;;;;;;4.75;3.15;;;;;;;;;;6282160;22;20239;-64
2021/10/21 01:35:58;;;;;;;5.18;2.80;;;;;;;;;;6279602;22;20140;-64
2021/10/21 01:38:24;;;;;;;7.80;3.10;;;;;;;;;;6279758;22;20155;-64
2021/10/21 01:40:50;;;;;;;4.10;3.00;;;;;;;;;;6280547;22;20149;-64
2021/10/21 01:43:16;;;;;;;4.38;2.95;;;;;;;;;;6280387;22;20510;-64
2021/10/21 01:45:42;;;;;;;6.50;3.15;;;;;;;;;;6280161;22;20139;-64
2021/10/21 01:48:08;;;;;;;4.88;3.15;;;;;;;;;;6279370;22;20182;-64
2021/10/21 01:50:34;;;;;;;6.35;3.13;;;;;;;;;;6279840;22;20500;-64
2021/10/21 01:53:00;;;;;;;5.25;3.40;;;;;;;;;;6280235;22;20610;-64
2021/10/21 01:55:27;;;;;;;4.18;3.47;;;;;;;;;;6280633;22;20139;-64
2021/10/21 01:57:56;;;;;;;5.80;3.70;;;;;;;;;;6279920;22;20151;-64
2021/10/21 02:00:23;;;;;;;4.93;2.95;;;;;;;;;;6280751;22;20140;-64
2021/10/21 02:02:49;;;;;;;6.05;3.28;;;;;;;;;;6280309;22;20175;-64
2021/10/21 02:05:16;;;;;;;6.07;3.05;;;;;;;;;;6280303;22;20457;-64
2021/10/21 02:07:42;;;;;;;4.68;2.97;;;;;;;;;;6278974;22;20150;-64
2021/10/21 02:10:09;;;;;;;4.43;3.50;;;;;;;;;;6280655;22;20544;-64
2021/10/21 02:12:35;;;;;;;4.60;3.47;;;;;;;;;;6279906;22;20148;-64
2021/10/21 02:15:01;;;;;;;4.00;2.83;;;;;;;;;;6279632;22;20200;-64
2021/10/21 02:17:27;;;;;;;5.72;3.10;;;;;;;;;;6279405;22;20140;-64
2021/10/21 02:19:53;;;;;;;5.97;3.33;;;;;;;;;;6279315;22;20218;-64
2021/10/21 02:22:20;;;;;;;4.93;2.95;;;;;;;;;;6279049;22;20495;-64
2021/10/21 02:24:46;;;;;;;6.40;2.85;;;;;;;;;;6279662;22;20140;-64
2021/10/21 02:27:12;;;;;;;5.57;3.28;;;;;;;;;;6279032;22;20557;-64
2021/10/21 02:29:38;;;;;;;4.60;3.30;;;;;;;;;;6279173;22;20250;-64
2021/10/21 02:32:04;;;;;;;4.85;3.22;;;;;;;;;;6278953;22;20136;-64
2021/10/21 02:34:30;;;;;;;4.53;3.17;;;;;;;;;;6279211;22;20139;-64
2021/10/21 02:36:56;;;;;;;4.63;3.25;;;;;;;;;;6279584;22;20427;-64
2021/10/21 02:39:22;;;;;;;6.00;3.58;;;;;;;;;;6279616;22;20517;-64
2021/10/21 02:41:48;;;;;;;5.57;3.70;;;;;;;;;;6278959;22;20154;-64
2021/10/21 02:44:14;;;;;;;5.32;4.22;;;;;;;;;;6279354;22;20239;-64
2021/10/21 02:46:40;;;;;;;5.97;4.03;;;;;;;;;;6279576;22;20422;-64
2021/10/21 02:49:06;;;;;;;4.72;3.72;;;;;;;;;;6279008;22;20427;-64
2021/10/21 02:51:32;;;;;;;6.40;3.65;;;;;;;;;;6279057;22;20151;-64
2021/10/21 02:53:58;;;;;;;5.13;3.58;;;;;;;;;;6279329;22;20145;-64
2021/10/21 02:56:24;;;;;;;6.55;4.00;;;;;;;;;;6279160;22;20619;-64
2021/10/21 02:58:50;;;;;;;5.88;3.80;;;;;;;;;;6278844;22;20165;-64
2021/10/21 03:01:15;;;;;;;5.35;3.47;;;;;;;;;;6278996;22;20139;-64
2021/10/21 03:03:41;;;;;;;6.15;3.53;;;;;;;;;;6278965;22;20171;-64
2021/10/21 03:06:07;;;;;;;6.25;3.72;;;;;;;;;;6278938;22;20140;-64
2021/10/21 03:08:33;;;;;;;5.88;3.63;;;;;;;;;;6278780;22;20154;-64
2021/10/21 03:10:59;;;;;;;6.57;3.92;;;;;;;;;;6279417;22;20151;-64
2021/10/21 03:13:25;;;;;;;5.22;3.65;;;;;;;;;;6278455;22;20144;-64
2021/10/21 03:15:51;;;;;;;6.18;3.28;;;;;;;;;;6278821;22;20140;-64
2021/10/21 03:18:17;;;;;;;4.25;3.30;;;;;;;;;;6279807;22;20150;-64
2021/10/21 03:20:43;;;;;;;5.88;3.80;;;;;;;;;;6279137;22;20143;-64
2021/10/21 03:23:09;;;;;;;4.60;3.63;;;;;;;;;;6278711;22;20446;-64
2021/10/21 03:25:35;;;;;;;4.10;3.15;;;;;;;;;;6278684;22;20155;-64
2021/10/21 03:28:00;;;;;;;4.38;3.60;;;;;;;;;;6279754;22;20148;-64
2021/10/21 03:30:26;;;;;;;5.50;3.58;;;;;;;;;;6278525;22;20396;-64
2021/10/21 03:32:52;;;;;;;7.43;3.60;;;;;;;;;;6278819;22;20590;-64
2021/10/21 03:35:19;;;;;;;4.32;3.53;;;;;;;;;;6278488;22;20223;-64
2021/10/21 03:37:45;;;;;;;5.32;3.95;;;;;;;;;;6278969;22;20140;-64
2021/10/21 03:40:11;;;;;;;7.25;3.83;;;;;;;;;;6278742;22;20201;-64
2021/10/21 03:42:38;;;;;;;4.22;3.50;;;;;;;;;;6278564;22;20613;-64
2021/10/21 03:45:04;;;;;;;3.75;3.30;;;;;;;;;;6280628;22;20139;-64
2021/10/21 03:47:30;;;;;;;4.60;3.85;;;;;;;;;;6281166;22;20229;-64
2021/10/21 03:49:56;;;;;;;5.93;3.88;;;;;;;;;;6281165;22;20148;-64
2021/10/21 03:52:22;;;;;;;5.82;3.97;;;;;;;;;;6281228;22;20158;-64
2021/10/21 03:54:48;;;;;;;6.97;4.35;;;;;;;;;;6280877;22;20197;-64
2021/10/21 03:57:15;;;;;;;4.78;3.80;;;;;;;;;;6280989;22;20192;-64
2021/10/21 03:59:41;;;;;;;5.22;4.10;;;;;;;;;;6281208;22;20167;-64
2021/10/21 04:02:07;;;;;;;9.57;4.40;;;;;;;;;;6280948;22;20240;-64
2021/10/21 04:04:33;;;;;;;5.15;4.10;;;;;;;;;;6281834;22;20199;-64
2021/10/21 04:07:00;;;;;;;6.03;3.85;;;;;;;;;;6281214;22;20415;-64
2021/10/21 04:09:25;;;;;;;4.80;4.13;;;;;;;;;;6280851;22;20135;-64
2021/10/21 04:11:51;;;;;;;8.52;4.45;;;;;;;;;;6281002;22;20154;-64
2021/10/21 04:14:17;;;;;;;6.60;5.05;;;;;;;;;;6281169;22;20144;-64
2021/10/21 04:16:43;;;;;;;6.97;4.93;;;;;;;;;;6281378;22;20598;-64
2021/10/21 04:19:10;;;;;;;6.57;4.38;;;;;;;;;;6280955;22;20139;-64
2021/10/21 04:21:36;;;;;;;6.72;5.05;;;;;;;;;;6281796;22;20243;-64
2021/10/21 04:24:01;;;;;;;5.72;4.38;;;;;;;;;;6281533;22;20216;-64
2021/10/21 04:26:28;;;;;;;5.35;4.60;;;;;;;;;;6281977;22;20156;-64
2021/10/21 04:28:54;;;;;;;8.00;5.22;;;;;;;;;;6282035;22;20139;-65
2021/10/21 04:31:19;;;;;;;10.05;5.35;;;;;;;;;;6282949;22;20199;-64
2021/10/21 04:33:45;;;;;;;8.18;4.70;;;;;;;;;;6283258;22;20143;-65
2021/10/21 04:36:11;;;;;;;6.15;4.43;;;;;;;;;;6282626;22;20454;-65
2021/10/21 04:38:37;;;;;;;5.75;4.60;;;;;;;;;;6283745;22;20232;-64
2021/10/21 04:41:03;;;;;;;7.00;4.53;;;;;;;;;;6283210;22;20234;-64
2021/10/21 04:43:29;;;;;;;5.50;4.90;;;;;;;;;;6282568;22;20167;-64
2021/10/21 04:45:55;;;;;;;6.72;4.93;;;;;;;;;;6282969;22;20559;-64
2021/10/21 04:48:21;;;;;;;6.45;4.90;;;;;;;;;;6282739;22;20201;-64
2021/10/21 04:50:47;;;;;;;7.15;5.05;;;;;;;;;;6283011;22;20132;-64
2021/10/21 04:53:14;;;;;;;7.03;5.78;;;;;;;;;;6283173;22;20474;-64
2021/10/21 04:55:40;;;;;;;5.80;4.80;;;;;;;;;;6283161;22;20167;-64
2021/10/21 04:58:06;;;;;;;7.45;5.22;;;;;;;;;;6282929;22;20144;-64
2021/10/21 05:00:33;;;;;;;7.25;5.25;;;;;;;;;;6281834;22;20139;-64
2021/10/21 05:03:06;;;;;;;8.85;5.35;;;;;;;;;;6282036;22;20171;-64
2021/10/21 05:05:32;;;;;;;6.55;5.13;;;;;;;;;;6281355;22;20159;-64
2021/10/21 05:07:58;;;;;;;6.20;4.72;;;;;;;;;;6281884;22;20136;-64
2021/10/21 05:10:24;;;;;;;5.85;5.25;;;;;;;;;;6281354;22;20197;-64
2021/10/21 05:12:50;;;;;;;6.18;4.75;;;;;;;;;;6282187;22;20144;-64
2021/10/21 05:15:18;;;;;;;5.60;4.82;;;;;;;;;;6281294;22;20158;-64
2021/10/21 05:17:44;;;;;;;6.57;4.95;;;;;;;;;;6281008;22;20158;-64
2021/10/21 05:20:10;;;;;;;5.93;4.85;;;;;;;;;;6280189;22;20446;-64
2021/10/21 05:22:36;;;;;;;4.75;4.25;;;;;;;;;;6280531;22;20555;-64
2021/10/21 05:25:02;;;;;;;8.35;4.63;;;;;;;;;;6280359;22;20175;-64
2021/10/21 05:27:28;;;;;;;5.03;4.40;;;;;;;;;;6280883;22;20135;-64
2021/10/21 05:29:54;;;;;;;5.93;4.72;;;;;;;;;;6280812;22;20197;-64
2021/10/21 05:32:20;;;;;;;6.47;4.10;;;;;;;;;;6280129;22;20140;-64
2021/10/21 05:34:46;;;;;;;5.55;4.20;;;;;;;;;;6280133;22;20143;-64
2021/10/21 05:37:12;;;;;;;8.45;4.32;;;;;;;;;;6280045;22;20530;-64
2021/10/21 05:39:39;;;;;;;4.35;3.75;;;;;;;;;;6279801;22;20150;-64
2021/10/21 05:42:05;;;;;;;4.35;3.67;;;;;;;;;;6280224;22;20499;-65
2021/10/21 05:44:31;;;;;;;4.65;3.72;;;;;;;;;;6281832;22;20199;-65
2021/10/21 05:46:58;;;;;;;3.97;2.00;;;;;;;;;;6281058;22;20151;-64
2021/10/21 05:49:24;;;;;;;2.55;1.15;;;;;;;;;;6281662;22;20224;-65
2021/10/21 05:51:50;;;;;;;3.60;1.15;;;;;;;;;;6283052;22;20148;-64
2021/10/21 05:54:16;;;;;;;2.58;1.25;;;;;;;;;;6284067;22;20140;-65
2021/10/21 05:56:42;;;;;;;2.85;1.75;;;;;;;;;;6283894;22;20150;-64
2021/10/21 05:59:07;;;;;;;3.10;1.63;;;;;;;;;;6283334;22;20139;-64
2021/10/21 06:01:33;;;;;;;2.63;1.88;;;;;;;;;;6282923;22;20151;-64
2021/10/21 06:03:59;;;;;;;2.78;1.70;;;;;;;;;;6282552;22;20206;-64
2021/10/21 06:06:25;;;;;;;2.53;1.98;;;;;;;;;;6281786;22;20136;-65
2021/10/21 06:08:51;;;;;;;1.60;1.50;;;;;;;;;;6282064;22;20136;-64
2021/10/21 06:11:17;;;;;;;2.90;1.90;;;;;;;;;;6282171;22;20143;-64
2021/10/21 06:13:43;;;;;;;3.10;1.60;;;;;;;;;;6282544;22;20297;-64
2021/10/21 06:16:09;;;;;;;2.35;1.42;;;;;;;;;;6282279;22;20143;-65
2021/10/21 06:18:36;;;;;;;2.45;1.55;;;;;;;;;;6282133;22;20547;-64
2021/10/21 06:21:05;;;;;;;1.88;1.60;;;;;;;;;;6282508;22;20594;-63
2021/10/21 06:23:31;;;;;;;3.47;1.70;;;;;;;;;;6282085;22;20167;-63
2021/10/21 06:25:57;;;;;;;1.48;1.38;;;;;;;;;;6280974;22;20406;-64
2021/10/21 06:28:23;;;;;;;2.28;1.20;;;;;;;;;;6280005;22;20182;-63
2021/10/21 06:30:49;;;;;;;2.15;1.50;;;;;;;;;;6280696;22;20140;-63
2021/10/21 06:33:15;;;;;;;1.63;1.50;;;;;;;;;;6280354;22;20595;-63
2021/10/21 06:35:42;;;;;;;1.40;1.30;;;;;;;;;;6280316;22;20143;-62
2021/10/21 06:38:08;;;;;;;1.45;1.35;;;;;;;;;;6280258;22;20177;-62
2021/10/21 06:40:34;;;;;;;1.70;1.60;;;;;;;;;;6279500;22;20154;-63
2021/10/21 06:43:00;;;;;;;2.15;1.60;;;;;;;;;;6279006;22;20481;-64
2021/10/21 06:45:26;;;;;;;2.75;1.55;;;;;;;;;;6279763;22;20149;-63
2021/10/21 06:47:52;;;;;;;2.55;1.40;;;;;;;;;;6278809;22;20139;-64
2021/10/21 06:50:18;;;;;;;2.17;1.10;;;;;;;;;;6279421;22;20174;-61
2021/10/21 06:52:45;;;;;;;1.77;1.20;;;;;;;;;;6279714;22;20171;-64
2021/10/21 06:55:13;;;;;;;1.70;1.30;;;;;;;;;;6280490;22;20161;-63
2021/10/21 06:57:46;;;;;;;1.40;1.30;;;;;;;;;;6280004;22;20571;-65
2021/10/21 07:00:12;;;;;;;2.35;1.20;;;;;;;;;;6283377;22;20142;-64
2021/10/21 07:02:38;;;;;;;1.60;1.20;;;;;;;;;;6282785;22;20227;-63
2021/10/21 07:05:05;;;;;;;3.42;1.35;;;;;;;;;;6283344;22;20140;-64
2021/10/21 07:07:31;;;;;;;2.85;1.38;;;;;;;;;;6282530;22;20218;-64
2021/10/21 07:09:59;;;;;;;1.85;1.40;;;;;;;;;;6282848;22;20140;-64
2021/10/21 07:12:25;;;;;;;2.30;1.25;;;;;;;;;;6283285;22;20136;-63
2021/10/21 07:14:51;;;;;;;2.25;1.38;;;;;;;;;;6283222;22;20144;-64
2021/10/21 07:17:17;;;;;;;2.38;1.50;;;;;;;;;;6283233;22;20167;-64
2021/10/21 07:19:48;;;;;;;1.50;1.40;;;;;;;;;;6285166;22;20143;-64
2021/10/21 07:22:14;;;;;;;1.65;1.25;;;;;;;;;;6285008;22;20207;-63
2021/10/21 07:24:40;;;;;;;1.80;1.50;;;;;;;;;;6284767;22;20163;-62
2021/10/21 07:27:06;;;;;;;3.72;1.50;;;;;;;;;;6283807;22;20151;-63
2021/10/21 07:29:32;;;;;;;1.92;1.13;;;;;;;;;;6283332;22;20140;-63
2021/10/21 07:31:58;;;;;;;3.00;1.27;;;;;;;;;;6283145;22;20606;-64
2021/10/21 07:34:24;;;;;;;1.40;1.30;;;;;;;;;;6282025;22;20392;-64
2021/10/21 07:36:50;;;;;;;1.88;1.25;;;;;;;;;;6281927;22;20150;-64
2021/10/21 07:39:16;;;;;;;3.67;1.20;;;;;;;;;;6282731;22;20301;-64
2021/10/21 07:41:42;;;;;;;2.35;1.20;;;;;;;;;;6282077;22;20140;-64
2021/10/21 07:44:09;;;;;;;2.40;1.08;;;;;;;;;;6282978;22;20186;-64
2021/10/21 07:46:35;;;;;;;1.85;0.95;;;;;;;;;;6283860;22;20231;-64
2021/10/21 07:49:01;;;;;;;2.25;0.90;;;;;;;;;;6283646;22;20445;-64
2021/10/21 07:51:30;;;;;;;1.45;1.00;;;;;;;;;;6282862;22;20148;-64
2021/10/21 07:53:57;;;;;;;3.72;1.15;;;;;;;;;;6283245;22;20154;-63
2021/10/21 07:56:23;;;;;;;2.63;1.05;;;;;;;;;;6256188;22;20669;-62
2021/10/21 07:58:49;;;;;;;3.10;1.10;;;;;;;;;;6283358;22;20148;-63
2021/10/21 08:01:16;;;;;;;1.83;0.80;;;;;;;;;;6283934;22;20143;-64
2021/10/21 08:03:42;;;;;;;1.15;0.90;;;;;;;;;;6282457;22;20198;-62
2021/10/21 08:06:08;;;;;;;2.38;1.10;;;;;;;;;;6282853;22;20565;-65
2021/10/21 08:08:33;;;;;;;1.58;0.88;;;;;;;;;;6282394;22;20193;-63
2021/10/21 08:10:59;;;;;;;1.25;0.93;;;;;;;;;;6282662;22;20136;-63
2021/10/21 08:13:25;;;;;;;1.65;0.90;;;;;;;;;;6283060;22;20172;-64
2021/10/21 08:15:51;;;;;;;2.28;1.00;;;;;;;;;;6283439;22;20163;-64
2021/10/21 08:18:17;;;;;;;1.67;1.00;;;;;;;;;;6283305;22;20450;-64
2021/10/21 08:20:44;;;;;;;2.45;1.10;;;;;;;;;;6282685;22;20469;-64
2021/10/21 08:23:11;;;;;;;1.92;1.00;;;;;;;;;;6282678;22;20174;-64
2021/10/21 08:25:37;;;;;;;3.10;0.95;;;;;;;;;;6280021;22;20221;-63
2021/10/21 08:28:03;;;;;;;2.25;1.13;;;;;;;;;;6278610;22;20479;-64
2021/10/21 08:30:31;;;;;;;2.15;1.20;;;;;;;;;;6278678;22;20407;-64
2021/10/21 08:32:58;;;;;;;2.10;1.25;;;;;;;;;;6279625;22;20143;-64
2021/10/21 08:35:28;;;;;;;2.58;1.02;;;;;;;;;;6280261;22;20222;-64
2021/10/21 08:37:54;;;;;;;1.55;1.05;;;;;;;;;;6278943;22;20159;-64
2021/10/21 08:40:20;;;;;;;1.25;1.15;;;;;;;;;;6277826;22;20449;-63
2021/10/21 08:42:47;;;;;;;1.90;0.95;;;;;;;;;;6277938;22;20154;-64
2021/10/21 08:45:13;;;;;;;1.33;1.00;;;;;;;;;;6277935;22;20135;-63
2021/10/21 08:47:42;;;;;;;1.50;1.00;;;;;;;;;;6277923;22;20201;-64
2021/10/21 08:50:08;;;;;;;2.22;0.80;;;;;;;;;;6277915;22;20140;-63
2021/10/21 08:52:34;;;;;;;3.65;1.05;;;;;;;;;;6278751;22;20562;-64
2021/10/21 08:55:00;;;;;;;2.90;1.15;;;;;;;;;;6283486;22;20205;-63
2021/10/21 08:57:26;;;;;;;2.03;0.95;;;;;;;;;;6282506;22;20140;-63
2021/10/21 08:59:54;;;;;;;3.85;1.45;;;;;;;;;;6282475;22;20143;-63
2021/10/21 09:02:24;;;;;;;0.98;0.90;;;;;;;;;;6282229;22;20144;-63
2021/10/21 09:05:09;;;;;;;2.38;0.98;;;;;;;;;;6282494;22;20512;-63
2021/10/21 09:10:20;;;;;;;4.13;1.35;;;;;;;;;;6284484;22;20144;-63
2021/10/21 09:12:46;;;;;;;1.92;0.95;;;;;;;;;;6285468;22;20173;-63
2021/10/21 09:15:15;;;;;;;1.67;1.08;;;;;;;;;;6284427;22;20139;-63
2021/10/21 09:17:41;;;;;;;1.45;0.80;;;;;;;;;;6284403;22;20443;-63
2021/10/21 09:20:26;;;;;;;2.60;1.00;;;;;;;;;;6283040;22;20148;-63
2021/10/21 09:22:53;;;;;;;1.98;1.05;;;;;;;;;;6282127;22;22079;-63
2021/10/21 09:25:22;;;;;;;3.67;0.98;;;;;;;;;;6283164;22;20242;-63
2021/10/21 09:27:48;;;;;;;1.35;0.70;;;;;;;;;;6284263;22;20125;-63
2021/10/21 09:30:19;;;;;;;0.85;0.80;;;;;;;;;;6284496;22;20140;-64
2021/10/21 09:32:46;;;;;;;4.88;1.05;;;;;;;;;;6285136;22;20135;-64
2021/10/21 09:35:14;;;;;;;1.70;0.50;;;;;;;;;;6283477;22;20136;-64
2021/10/21 09:37:42;;;;;;;1.33;0.30;;;;;;;;;;6278500;22;20583;-64
2021/10/21 09:40:09;;;;;;;0.38;0.32;;;;;;;;;;6278318;22;20193;-64
2021/10/21 09:42:39;;;;;;;2.03;0.50;;;;;;;;;;6277984;22;20147;-64
2021/10/21 09:45:12;;;;;;;0.32;0.30;;;;;;;;;;6279449;22;20144;-64
2021/10/21 09:47:38;;;;;;;2.10;0.43;;;;;;;;;;6279726;22;20432;-63
2021/10/21 09:50:18;;;;;;;0.80;0.40;;;;;;;;;;6280214;22;20151;-64
2021/10/21 09:53:00;;;;;;;0.90;0.40;;;;;;;;;;6281211;22;20136;-63
2021/10/21 09:55:26;;;;;;;1.65;0.63;;;;;;;;;;6281216;22;20150;-64
2021/10/21 09:57:52;;;;;;;1.67;0.40;;;;;;;;;;6279966;22;20147;-64
2021/10/21 10:00:20;;;;;;;1.00;0.50;;;;;;;;;;6278610;22;20230;-64
2021/10/21 10:02:46;;;;;;;3.35;0.60;;;;;;;;;;6278206;22;20439;-64
2021/10/21 10:05:16;;;;;;;0.80;0.50;;;;;;;;;;6279088;22;20136;-64
2021/10/21 10:07:42;;;;;;;0.65;0.40;;;;;;;;;;6278540;22;20128;-64
2021/10/21 10:10:09;;;;;;;3.28;0.50;;;;;;;;;;6278612;22;20226;-64
2021/10/21 10:12:35;;;;;;;2.40;0.40;;;;;;;;;;6278049;22;20147;-64
2021/10/21 10:15:01;;;;;;;2.20;0.60;;;;;;;;;;6278374;22;20197;-64
2021/10/21 10:17:29;;;;;;;1.13;0.45;;;;;;;;;;6278128;22;20163;-64
2021/10/21 10:19:55;;;;;;;1.48;0.50;;;;;;;;;;6277594;22;20158;-64
2021/10/21 10:22:25;;;;;;;2.15;0.57;;;;;;;;;;6277204;22;20150;-64
2021/10/21 10:24:51;;;;;;;2.20;0.70;;;;;;;;;;6277752;22;20254;-63
2021/10/21 10:27:22;;;;;;;1.65;0.38;;;;;;;;;;6277930;22;20198;-63
2021/10/21 10:29:48;;;;;;;1.63;0.50;;;;;;;;;;6277092;22;20140;-63
2021/10/21 10:32:29;;;;;;;8.52;0.70;;;;;;;;;;6276731;22;20144;-63
2021/10/21 10:34:55;;;;;;;6.15;0.50;;;;;;;;;;6276880;22;20154;-63
2021/10/21 10:37:21;;;;;;;1.30;0.47;;;;;;;;;;6277407;22;20433;-63
2021/10/21 10:39:55;;;;;;;5.70;0.70;;;;;;;;;;6276756;22;20151;-63
2021/10/21 10:42:30;;;;;;;1.65;0.60;;;;;;;;;;6276965;22;20151;-63
2021/10/21 10:44:57;;;;;;;2.83;0.68;;;;;;;;;;6277182;22;20189;-63
2021/10/21 10:47:38;;;;;;;3.70;0.55;;;;;;;;;;6276831;22;20144;-63
2021/10/21 10:50:05;;;;;;;0.70;0.47;;;;;;;;;;6276810;22;20151;-63
2021/10/21 10:52:51;;;;;;;3.22;0.60;;;;;;;;;;6276425;22;20148;-63
2021/10/21 10:55:25;;;;;;;2.30;0.40;;;;;;;;;;6276309;22;20147;-64
2021/10/21 10:57:52;;;;;;;0.88;0.40;;;;;;;;;;6276488;22;20186;-63
2021/10/21 11:00:32;;;;;;;4.32;0.80;;;;;;;;;;6277091;22;20147;-64
2021/10/21 11:02:59;;;;;;;2.30;0.70;;;;;;;;;;6277570;22;20174;-63
2021/10/21 11:05:43;;;;;;;2.80;0.75;;;;;;;;;;6276675;22;20435;-63
2021/10/21 11:08:10;;;;;;;2.67;0.65;;;;;;;;;;6276724;22;20224;-63
2021/10/21 11:10:37;;;;;;;2.35;0.80;;;;;;;;;;6277212;22;20140;-63
2021/10/21 11:13:17;;;;;;;2.25;0.85;;;;;;;;;;6276804;22;20248;-63
2021/10/21 11:15:44;;;;;;;2.53;0.70;;;;;;;;;;6276304;22;20202;-63
2021/10/21 11:18:10;;;;;;;3.38;0.70;;;;;;;;;;6276868;22;20169;-63
2021/10/21 11:20:35;;;;;;;3.45;0.80;;;;;;;;;;6277559;22;20555;-63
2021/10/21 11:23:06;;;;;;;2.25;1.05;;;;;;;;;;6276917;22;20594;-63
2021/10/21 11:25:33;;;;;;;2.78;0.70;;;;;;;;;;6276785;22;20171;-63
2021/10/21 11:28:00;;;;;;;3.85;0.95;;;;;;;;;;6277639;22;20170;-63
2021/10/21 11:30:28;;;;;;;1.38;0.65;;;;;;;;;;6278021;22;20144;-64
2021/10/21 11:32:55;;;;;;;5.00;0.70;;;;;;;;;;6278171;22;20143;-63
2021/10/21 11:35:22;;;;;;;2.78;0.80;;;;;;;;;;6278620;22;20147;-64
2021/10/21 11:37:49;;;;;;;3.22;0.80;;;;;;;;;;6279016;22;20150;-64
2021/10/21 11:40:22;;;;;;;2.80;0.82;;;;;;;;;;6279292;22;20159;-63
2021/10/21 11:42:49;;;;;;;6.07;1.15;;;;;;;;;;6277862;22;20138;-63
2021/10/21 11:45:15;;;;;;;4.45;0.80;;;;;;;;;;6278163;22;20139;-64
2021/10/21 11:47:41;;;;;;;2.80;0.90;;;;;;;;;;6277351;22;20142;-64
2021/10/21 11:50:08;;;;;;;2.17;0.90;;;;;;;;;;6277125;22;20164;-64
2021/10/21 11:52:41;;;;;;;1.70;0.60;;;;;;;;;;6277307;22;20224;-64
2021/10/21 11:55:07;;;;;;;2.88;0.80;;;;;;;;;;6277048;22;20151;-64
2021/10/21 11:57:34;;;;;;;4.25;1.00;;;;;;;;;;6277491;22;20147;-64
2021/10/21 12:00:00;;;;;;;1.40;0.60;;;;;;;;;;6278250;22;20471;-64
2021/10/21 12:02:30;;;;;;;1.20;0.60;;;;;;;;;;6277667;22;20154;-64
2021/10/21 12:04:56;;;;;;;3.78;0.80;;;;;;;;;;6278795;22;20190;-63
2021/10/21 12:07:23;;;;;;;1.83;0.90;;;;;;;;;;6279469;22;20140;-64
2021/10/21 12:09:49;;;;;;;2.45;0.70;;;;;;;;;;6278505;22;20449;-63
2021/10/21 12:12:15;;;;;;;2.78;0.70;;;;;;;;;;6278278;22;20601;-64
2021/10/21 12:14:42;;;;;;;4.60;0.90;;;;;;;;;;6279090;22;20488;-64
2021/10/21 12:17:09;;;;;;;4.13;0.70;;;;;;;;;;6279623;22;20183;-64
2021/10/21 12:19:35;;;;;;;6.03;1.25;;;;;;;;;;6279564;22;20147;-64
2021/10/21 12:22:03;;;;;;;1.17;0.50;;;;;;;;;;6278775;22;20161;-64
2021/10/21 12:24:29;;;;;;;1.58;0.50;;;;;;;;;;6278027;22;20172;-64
2021/10/21 12:26:56;;;;;;;2.70;0.75;;;;;;;;;;6277963;22;20156;-64
2021/10/21 12:29:24;;;;;;;2.40;0.50;;;;;;;;;;6278506;22;20175;-64
2021/10/21 12:31:50;;;;;;;3.70;0.57;;;;;;;;;;6279266;22;20147;-64
2021/10/21 12:34:26;;;;;;;2.05;0.50;;;;;;;;;;6278435;22;20447;-64
2021/10/21 12:36:53;;;;;;;2.83;0.63;;;;;;;;;;6278764;22;20140;-64
2021/10/21 12:39:24;;;;;;;1.70;0.47;;;;;;;;;;6279049;22;20189;-64
2021/10/21 12:41:55;;;;;;;4.10;0.50;;;;;;;;;;6278266;22;20131;-64
2021/10/21 12:44:25;;;;;;;2.17;0.68;;;;;;;;;;6278528;22;20175;-64
2021/10/21 12:47:06;;;;;;;3.92;0.98;;;;;;;;;;6278254;22;20139;-64
2021/10/21 12:49:32;;;;;;;1.00;0.60;;;;;;;;;;6278425;22;20469;-64
2021/10/21 12:52:04;;;;;;;4.80;0.63;;;;;;;;;;6278722;22;20144;-64
2021/10/21 12:54:30;;;;;;;3.20;0.70;;;;;;;;;;6278887;22;20128;-64
2021/10/21 12:56:58;;;;;;;2.60;0.68;;;;;;;;;;6279098;22;20148;-64
2021/10/21 12:59:24;;;;;;;3.90;0.90;;;;;;;;;;6278791;22;20231;-64
2021/10/21 13:01:58;;;;;;;3.47;0.60;;;;;;;;;;6278890;22;20165;-64
2021/10/21 13:04:39;;;;;;;2.30;0.68;;;;;;;;;;6279165;22;20167;-64
2021/10/21 13:07:06;;;;;;;3.60;0.55;;;;;;;;;;6278874;22;20147;-64
2021/10/21 13:09:32;;;;;;;1.77;0.50;;;;;;;;;;6278547;22;20558;-63
2021/10/21 13:11:58;;;;;;;2.63;0.80;;;;;;;;;;6278163;22;20147;-63
2021/10/21 13:14:24;;;;;;;1.85;0.50;;;;;;;;;;6279751;22;20243;-63
2021/10/21 13:16:50;;;;;;;3.72;0.60;;;;;;;;;;6278818;22;20313;-63
2021/10/21 13:19:16;;;;;;;2.75;0.60;;;;;;;;;;6279097;22;20163;-64
2021/10/21 13:21:42;;;;;;;3.63;0.70;;;;;;;;;;6279077;22;20150;-64
2021/10/21 13:24:07;;;;;;;3.08;0.70;;;;;;;;;;6280526;22;20205;-64
2021/10/21 13:26:33;;;;;;;6.32;0.70;;;;;;;;;;6280351;22;20163;-64
2021/10/21 13:28:59;;;;;;;2.42;0.90;;;;;;;;;;6280973;22;20136;-65
2021/10/21 13:31:25;;;;;;;3.08;0.52;;;;;;;;;;6280759;22;20546;-64
2021/10/21 13:33:51;;;;;;;2.88;0.70;;;;;;;;;;6282083;22;20222;-64
2021/10/21 13:36:17;;;;;;;3.20;0.90;;;;;;;;;;6281992;22;20143;-64
2021/10/21 13:38:43;;;;;;;6.30;0.80;;;;;;;;;;6281607;22;20155;-64
2021/10/21 13:41:09;;;;;;;3.33;0.80;;;;;;;;;;6281079;22;20146;-64
2021/10/21 13:43:35;;;;;;;6.90;0.88;;;;;;;;;;6278316;22;20175;-63
2021/10/21 13:46:01;;;;;;;3.33;0.65;;;;;;;;;;6278036;22;20143;-63
2021/10/21 13:48:29;;;;;;;4.53;0.70;;;;;;;;;;6277958;22;20167;-64
2021/10/21 13:50:55;;;;;;;2.00;0.40;;;;;;;;;;6279343;22;20139;-64
2021/10/21 13:53:21;;;;;;;3.92;0.70;;;;;;;;;;6278974;22;20442;-64
2021/10/21 13:55:47;;;;;;;7.00;0.80;;;;;;;;;;6280167;22;20140;-64
2021/10/21 13:58:14;;;;;;;2.60;0.70;;;;;;;;;;6279516;22;20602;-65
2021/10/21 14:00:40;;;;;;;4.78;0.95;;;;;;;;;;6280030;22;20150;-64
2021/10/21 14:03:06;;;;;;;4.75;0.77;;;;;;;;;;6279608;22;20168;-64
2021/10/21 14:05:33;;;;;;;3.70;0.70;;;;;;;;;;6281037;22;20219;-64
2021/10/21 14:07:59;;;;;;;6.25;0.77;;;;;;;;;;6280196;22;20204;-64
2021/10/21 14:10:25;;;;;;;3.30;0.70;;;;;;;;;;6280919;22;20221;-64
2021/10/21 14:12:52;;;;;;;3.60;1.25;;;;;;;;;;6281329;22;20143;-64
2021/10/21 14:15:18;;;;;;;4.53;1.10;;;;;;;;;;6281471;22;20218;-63
2021/10/21 14:17:44;;;;;;;4.40;0.93;;;;;;;;;;6281266;22;20509;-63
2021/10/21 14:20:10;;;;;;;7.25;0.90;;;;;;;;;;6281751;22;20211;-63
2021/10/21 14:22:37;;;;;;;4.38;1.00;;;;;;;;;;6281649;22;20136;-64
2021/10/21 14:25:06;;;;;;;7.15;1.10;;;;;;;;;;6282516;22;20642;-64
2021/10/21 14:27:32;;;;;;;5.95;0.95;;;;;;;;;;6282425;22;20124;-63
2021/10/21 14:29:58;;;;;;;5.80;0.80;;;;;;;;;;6282155;22;20199;-64
2021/10/21 14:32:25;;;;;;;3.33;0.80;;;;;;;;;;6280014;22;20167;-64
2021/10/21 14:34:51;;;;;;;3.80;0.90;;;;;;;;;;6278452;22;20144;-64
2021/10/21 14:37:18;;;;;;;3.83;0.70;;;;;;;;;;6277896;22;20139;-64
2021/10/21 14:39:44;;;;;;;1.02;0.57;;;;;;;;;;6278466;22;20163;-64
2021/10/21 14:42:10;;;;;;;4.35;0.98;;;;;;;;;;6278367;22;20440;-65
2021/10/21 14:44:36;;;;;;;3.92;0.93;;;;;;;;;;6278734;22;20166;-63